KMUT Airport (Muscatine Muni) Information

FAA: MUT - ICAO: KMUT

KMUT Airport Location

State Iowa
County Muscatine
City Muscatine
KMUT Airport is 5 miles southwest of Muscatine, IA.
Latitude 41-22-04.4000N
Longitude 091-08-53.6000W
Elevation 547ft

KMUT Airport METARs

METAR KMUT 251655Z AUTO 01012G20KT 10SM OVC026 11/07 A3002 RMK AO2
Altimeter 30.02"
Temperature 11.0°C (51.8°F)
Wind 10° at 12KT with gusts to 20KT
Clouds overcast at 2,600ft
Visibility 10.0mi
Time observed: 2021-10-25T16:55:00Z

KMUT Airport Details

Status Operational
Activation May 1947
Ownership Public
Usage Public
Chart CHICAGO
ATC on-site No
Beacon schedule sunset-sunrise
Beacon color clear green

KMUT Airport Contacts

Owner CITY OF MUSCATINE
Owner address 215 SYCAMORE, MUSCATINE, IA 52761
Owner phone 563-264-1550
Manager MR. HILL
Manager address USARC HIGHWAY 79 WEST, MIDDLETOWN, IA 52638
Manager phone 319-392-4296

KMUT Airport (Muscatine Muni) Radio Frequencies

KMUT (Airport) Radio Frequencies

UNICOM 122.7
Common traffic advisory frequency (CTAF) 122.7